Time;durP1;ratioP1;P1;durP2;ratioP2;P2;SDS_P1;SDS_P2;PMS_P1;PMS_P2;Temp;Humidity;BMP_temperature;BMP_pressure;BME280_temperature;BME280_humidity;BME280_pressure;Samples;Min_cycle;Max_cycle;Signal;HPM_P1;HPM_P2
2021/06/15 00:00:16;;;;;;;7.60;4.30;;;15.70;99.90;;;;;;5059821;28;20667;-90
2021/06/15 00:02:43;;;;;;;5.80;4.40;;;15.70;99.90;;;;;;5066841;28;20629;-89
2021/06/15 00:05:11;;;;;;;5.33;4.40;;;15.70;99.90;;;;;;5068327;28;20980;-90
2021/06/15 00:07:39;;;;;;;5.00;4.50;;;15.60;99.90;;;;;;5064238;28;20613;-90
2021/06/15 00:10:10;;;;;;;6.67;4.23;;;15.60;99.90;;;;;;5061935;28;20660;-89
2021/06/15 00:12:37;;;;;;;7.57;4.30;;;15.60;99.90;;;;;;5065810;28;21029;-89
2021/06/15 00:15:05;;;;;;;4.53;4.17;;;15.60;99.90;;;;;;5060403;28;20659;-89
2021/06/15 00:17:33;;;;;;;4.40;4.00;;;15.60;99.90;;;;;;5062159;28;21183;-90
2021/06/15 00:20:00;;;;;;;4.93;4.50;;;15.50;99.90;;;;;;5061040;28;20661;-90
2021/06/15 00:22:27;;;;;;;7.10;4.10;;;15.40;99.90;;;;;;5064477;28;21536;-90
2021/06/15 00:24:53;;;;;;;5.07;4.50;;;15.40;99.90;;;;;;5063213;28;20623;-90
2021/06/15 00:27:22;;;;;;;6.13;4.83;;;15.30;99.90;;;;;;5059950;28;21192;-89
2021/06/15 00:29:49;;;;;;;6.60;4.63;;;15.30;99.90;;;;;;5057707;28;21207;-88
2021/06/15 00:32:15;;;;;;;5.43;4.67;;;15.20;99.90;;;;;;5062030;28;20628;-89
2021/06/15 00:34:42;;;;;;;5.87;5.00;;;15.20;99.90;;;;;;5061246;28;20661;-90
2021/06/15 00:37:09;;;;;;;5.30;4.80;;;15.20;99.90;;;;;;5045155;28;20651;-89
2021/06/15 00:39:36;;;;;;;6.37;4.40;;;15.10;99.90;;;;;;5060998;28;20649;-89
2021/06/15 00:42:05;;;;;;;5.33;4.80;;;15.10;99.90;;;;;;5063459;28;20629;-88
2021/06/15 00:44:33;;;;;;;5.23;4.83;;;15.10;99.90;;;;;;5061576;28;20671;-89
2021/06/15 00:47:01;;;;;;;5.00;4.37;;;15.00;99.90;;;;;;5059779;28;20624;-89
2021/06/15 00:49:33;;;;;;;8.33;5.10;;;15.00;99.90;;;;;;5058134;28;20660;-89
2021/06/15 00:52:00;;;;;;;6.00;4.10;;;15.00;99.90;;;;;;5062596;28;20596;-90
2021/06/15 00:54:27;;;;;;;5.30;4.80;;;14.90;99.90;;;;;;5069642;28;20787;-89
2021/06/15 00:56:54;;;;;;;5.20;4.70;;;14.90;99.90;;;;;;5064916;28;20632;-89
2021/06/15 00:59:21;;;;;;;6.97;4.70;;;14.90;99.90;;;;;;5062663;28;20666;-89
2021/06/15 01:01:50;;;;;;;5.30;4.80;;;14.70;99.90;;;;;;5061084;28;20628;-89
2021/06/15 01:04:18;;;;;;;5.10;4.43;;;14.70;99.90;;;;;;5063116;28;20632;-89
2021/06/15 01:06:53;;;;;;;5.00;4.50;;;14.70;99.90;;;;;;5060054;28;20621;-89
2021/06/15 01:09:29;;;;;;;5.93;4.97;;;14.70;99.90;;;;;;5060961;28;20636;-89
2021/06/15 01:12:03;;;;;;;4.67;4.10;;;14.70;99.90;;;;;;5059830;28;20628;-88
2021/06/15 01:14:42;;;;;;;7.00;4.53;;;14.70;99.90;;;;;;5063517;28;20695;-89
2021/06/15 01:17:17;;;;;;;7.33;4.27;;;14.60;99.90;;;;;;5064360;28;20625;-88
2021/06/15 01:20:07;;;;;;;4.47;4.10;;;14.60;99.90;;;;;;5060367;28;20996;-89
2021/06/15 01:22:50;;;;;;;5.23;4.83;;;14.50;99.90;;;;;;5065870;28;20625;-88
2021/06/15 01:25:23;;;;;;;6.57;4.00;;;14.60;99.90;;;;;;5060036;28;20625;-89
2021/06/15 01:27:55;;;;;;;4.93;4.37;;;14.50;99.90;;;;;;5059376;28;20626;-88
2021/06/15 01:30:26;;;;;;;4.90;4.37;;;14.50;99.90;;;;;;5059520;28;20646;-87
2021/06/15 01:32:57;;;;;;;5.73;4.37;;;14.50;99.90;;;;;;5059310;28;20628;-89
2021/06/15 01:35:26;;;;;;;4.63;4.20;;;14.40;99.90;;;;;;5059379;28;20644;-88
2021/06/15 01:37:58;;;;;;;4.20;3.83;;;14.40;99.90;;;;;;5062200;28;20613;-90
2021/06/15 01:40:32;;;;;;;6.47;5.50;;;14.40;99.90;;;;;;5061566;28;20668;-89
2021/06/15 01:43:03;;;;;;;5.27;4.27;;;14.30;99.90;;;;;;5062377;28;20629;-89
2021/06/15 01:45:34;;;;;;;4.50;4.03;;;14.30;99.90;;;;;;5062961;28;21177;-89
2021/06/15 01:48:09;;;;;;;4.47;3.80;;;14.40;99.90;;;;;;5080714;28;20582;-89
2021/06/15 01:50:39;;;;;;;4.37;3.97;;;14.30;99.90;;;;;;5067015;28;20759;-88
2021/06/15 01:53:08;;;;;;;5.00;4.47;;;14.30;99.90;;;;;;5068856;28;20625;-89
2021/06/15 01:55:36;;;;;;;4.60;4.20;;;14.20;99.90;;;;;;5042994;28;20664;-90
2021/06/15 01:58:06;;;;;;;5.33;4.50;;;14.20;99.90;;;;;;5043900;28;20668;-88
2021/06/15 02:00:34;;;;;;;7.60;4.47;;;14.20;99.90;;;;;;5060377;28;21062;-87
2021/06/15 02:03:04;;;;;;;5.90;5.30;;;14.10;99.90;;;;;;5063201;28;20627;-89
2021/06/15 02:05:35;;;;;;;5.33;4.93;;;14.10;99.90;;;;;;5061837;28;20613;-88
2021/06/15 02:08:04;;;;;;;5.27;4.87;;;14.10;99.90;;;;;;5060594;28;20632;-90
2021/06/15 02:10:32;;;;;;;5.83;5.23;;;14.00;99.90;;;;;;5059674;28;21180;-88
2021/06/15 02:13:01;;;;;;;6.77;5.27;;;14.00;99.90;;;;;;5061784;28;20633;-88
2021/06/15 02:15:30;;;;;;;5.77;5.27;;;14.00;99.90;;;;;;5059297;28;20684;-89
2021/06/15 02:18:01;;;;;;;6.10;5.60;;;13.90;99.90;;;;;;5061588;28;21207;-88
2021/06/15 02:20:34;;;;;;;5.63;5.10;;;13.80;99.90;;;;;;5064051;28;20644;-89
2021/06/15 02:23:04;;;;;;;9.10;5.83;;;13.90;99.90;;;;;;5064226;28;20625;-89
2021/06/15 02:25:35;;;;;;;6.90;5.40;;;13.80;99.90;;;;;;5061749;28;20953;-88
2021/06/15 02:28:02;;;;;;;5.77;4.80;;;13.80;99.90;;;;;;5060513;28;20637;-89
2021/06/15 02:30:32;;;;;;;6.00;5.50;;;13.90;99.90;;;;;;5060951;28;20653;-89
2021/06/15 02:33:07;;;;;;;6.07;4.93;;;13.80;99.90;;;;;;5062688;28;20621;-89
2021/06/15 02:35:36;;;;;;;5.80;5.20;;;13.80;99.90;;;;;;5063131;28;20670;-89
2021/06/15 02:38:08;;;;;;;7.63;4.97;;;13.70;99.90;;;;;;5063380;28;20632;-89
2021/06/15 02:40:35;;;;;;;5.20;4.80;;;13.80;99.90;;;;;;5062815;28;20644;-90
2021/06/15 02:43:02;;;;;;;5.13;4.23;;;13.70;99.90;;;;;;5060779;28;20632;-89
2021/06/15 02:45:33;;;;;;;5.10;4.70;;;13.70;99.90;;;;;;5059184;28;20684;-89
2021/06/15 02:48:02;;;;;;;5.40;4.90;;;13.70;99.90;;;;;;5060251;28;20641;-90
2021/06/15 02:50:31;;;;;;;6.17;5.57;;;13.60;99.90;;;;;;5063139;28;20883;-89
2021/06/15 02:53:04;;;;;;;5.23;4.83;;;13.60;99.90;;;;;;5057762;28;20631;-90
2021/06/15 02:55:34;;;;;;;6.10;5.50;;;13.60;99.90;;;;;;5066519;28;20668;-89
2021/06/15 02:58:02;;;;;;;5.10;4.70;;;13.60;99.90;;;;;;5068112;28;20727;-89
2021/06/15 03:00:29;;;;;;;5.90;5.30;;;13.60;99.90;;;;;;5061235;28;20677;-89
2021/06/15 03:02:58;;;;;;;5.00;4.60;;;13.50;99.90;;;;;;5065476;28;20728;-88
2021/06/15 03:05:25;;;;;;;8.17;5.33;;;13.60;99.90;;;;;;5065808;28;20632;-89
2021/06/15 03:07:53;;;;;;;7.27;5.20;;;13.50;99.90;;;;;;5063165;28;21062;-88
2021/06/15 03:10:21;;;;;;;6.73;5.07;;;13.50;99.90;;;;;;5064231;28;20660;-88
2021/06/15 03:12:52;;;;;;;5.57;5.07;;;13.40;99.90;;;;;;5064546;28;20635;-87
2021/06/15 03:15:23;;;;;;;6.13;5.67;;;13.50;99.90;;;;;;5056483;28;20656;-89
2021/06/15 03:17:55;;;;;;;6.33;5.83;;;13.40;99.90;;;;;;5066264;28;20609;-88
2021/06/15 03:20:26;;;;;;;6.07;4.87;;;13.40;99.90;;;;;;5062729;28;21034;-88
2021/06/15 03:22:58;;;;;;;5.70;5.20;;;13.30;99.90;;;;;;5065224;28;20636;-88
2021/06/15 03:25:34;;;;;;;6.67;4.93;;;13.30;99.90;;;;;;5064344;28;20624;-87
2021/06/15 03:28:04;;;;;;;5.73;5.17;;;13.30;99.90;;;;;;5066000;28;20639;-89
2021/06/15 03:30:31;;;;;;;7.20;5.33;;;13.20;99.90;;;;;;5065526;28;20653;-88
2021/06/15 03:33:03;;;;;;;6.03;4.97;;;13.20;99.90;;;;;;5064444;28;20625;-89
2021/06/15 03:35:33;;;;;;;5.37;4.87;;;13.30;99.90;;;;;;5062782;28;20666;-89
2021/06/15 03:38:02;;;;;;;6.40;5.37;;;13.20;99.90;;;;;;5065590;28;21106;-88
2021/06/15 03:40:34;;;;;;;6.43;5.03;;;13.30;99.90;;;;;;5065215;28;20648;-88
2021/06/15 03:43:02;;;;;;;8.00;5.23;;;13.30;99.90;;;;;;5065070;28;20651;-89
2021/06/15 03:45:31;;;;;;;5.93;5.00;;;13.30;99.90;;;;;;5066079;28;20649;-89
2021/06/15 03:48:00;;;;;;;6.20;5.60;;;13.30;99.90;;;;;;5064420;28;20632;-88
2021/06/15 03:50:27;;;;;;;6.00;5.07;;;13.30;99.90;;;;;;5064385;28;20993;-88
2021/06/15 03:52:58;;;;;;;7.87;5.20;;;13.30;99.90;;;;;;5065715;28;20621;-89
2021/06/15 03:55:29;;;;;;;5.40;4.90;;;13.40;99.90;;;;;;5060734;28;20784;-89
2021/06/15 03:57:57;;;;;;;7.40;6.43;;;13.40;99.90;;;;;;5058701;28;21238;-89
2021/06/15 04:00:25;;;;;;;5.57;5.13;;;13.50;99.90;;;;;;5059229;28;20668;-89
2021/06/15 04:02:55;;;;;;;6.77;5.93;;;13.50;99.90;;;;;;5062399;28;20639;-89
2021/06/15 04:05:27;;;;;;;11.90;5.70;;;13.40;99.90;;;;;;5065995;28;21916;-89
2021/06/15 04:07:58;;;;;;;5.47;4.97;;;13.40;99.90;;;;;;5063580;28;20623;-89
2021/06/15 04:10:26;;;;;;;6.20;5.70;;;13.40;99.90;;;;;;5064100;28;20649;-90
2021/06/15 04:12:55;;;;;;;5.70;5.20;;;13.40;99.90;;;;;;5065193;28;20630;-89
2021/06/15 04:15:22;;;;;;;6.47;5.53;;;13.50;99.90;;;;;;5063238;28;20679;-90
2021/06/15 04:17:51;;;;;;;6.80;5.30;;;13.50;99.90;;;;;;5065927;28;20633;-89
2021/06/15 04:20:22;;;;;;;6.37;5.77;;;13.50;99.90;;;;;;5062122;28;20692;-89
2021/06/15 04:22:51;;;;;;;7.60;6.53;;;13.60;99.90;;;;;;5065954;28;20605;-88
2021/06/15 04:25:23;;;;;;;6.33;5.83;;;13.60;99.90;;;;;;5062093;28;20618;-88
2021/06/15 04:27:50;;;;;;;7.80;6.00;;;13.60;99.90;;;;;;5059905;28;20625;-89
2021/06/15 04:30:20;;;;;;;8.03;7.23;;;13.70;99.90;;;;;;5061919;28;20657;-89
2021/06/15 04:32:51;;;;;;;7.23;6.43;;;13.70;99.90;;;;;;5063329;28;20621;-88
2021/06/15 04:35:29;;;;;;;7.83;6.83;;;13.80;99.90;;;;;;5061669;28;20648;-90
2021/06/15 04:38:01;;;;;;;8.53;6.83;;;13.70;99.90;;;;;;5065877;28;20651;-89
2021/06/15 04:40:35;;;;;;;7.00;6.40;;;13.80;99.90;;;;;;5062143;28;20653;-89
2021/06/15 04:43:22;;;;;;;9.80;6.67;;;13.80;99.90;;;;;;5047627;28;20626;-88
2021/06/15 04:45:53;;;;;;;9.30;8.57;;;13.90;99.90;;;;;;5063485;28;20627;-88
2021/06/15 04:48:30;;;;;;;13.00;9.03;;;14.00;99.90;;;;;;5064557;28;20711;-88
2021/06/15 04:51:00;;;;;;;11.03;10.13;;;14.20;99.90;;;;;;5064744;28;20645;-90
2021/06/15 04:53:30;;;;;;;12.50;11.47;;;14.30;99.90;;;;;;5064903;28;20663;-89
2021/06/15 04:56:01;;;;;;;16.73;10.27;;;14.40;99.90;;;;;;5066614;28;20680;-89
2021/06/15 04:58:31;;;;;;;18.50;12.87;;;14.40;99.90;;;;;;5067734;28;20624;-90
2021/06/15 05:01:00;;;;;;;12.80;11.70;;;14.50;99.90;;;;;;5067531;28;20660;-89
2021/06/15 05:03:29;;;;;;;11.73;10.67;;;14.60;99.90;;;;;;5067057;28;20632;-90
2021/06/15 05:05:58;;;;;;;11.53;10.07;;;14.80;99.90;;;;;;5064590;28;20590;-89
2021/06/15 05:08:27;;;;;;;11.77;9.97;;;14.90;99.90;;;;;;5064323;28;20633;-90
2021/06/15 05:10:57;;;;;;;10.40;9.50;;;15.00;99.90;;;;;;5061744;28;20656;-88
2021/06/15 05:13:26;;;;;;;13.10;10.33;;;15.10;99.90;;;;;;5060335;28;20624;-90
2021/06/15 05:15:58;;;;;;;9.80;8.93;;;15.20;99.90;;;;;;5059028;28;21253;-89
2021/06/15 05:18:25;;;;;;;9.30;8.40;;;15.20;99.90;;;;;;5060535;28;20619;-89
2021/06/15 05:20:52;;;;;;;9.73;8.83;;;15.30;99.90;;;;;;5061825;28;20649;-90
2021/06/15 05:23:23;;;;;;;15.03;10.53;;;15.40;99.90;;;;;;5061833;28;20628;-90
2021/06/15 05:25:50;;;;;;;8.83;7.93;;;15.50;99.90;;;;;;5061264;28;20649;-89
2021/06/15 05:28:18;;;;;;;14.93;10.97;;;15.60;99.90;;;;;;5060502;28;20761;-89
2021/06/15 05:30:48;;;;;;;13.37;9.87;;;15.70;99.90;;;;;;5062977;28;21222;-89
2021/06/15 05:33:18;;;;;;;9.43;8.53;;;15.80;99.90;;;;;;5063516;28;20698;-92
2021/06/15 05:35:46;;;;;;;8.80;7.70;;;15.90;99.90;;;;;;5063929;28;20749;-90
2021/06/15 05:38:15;;;;;;;9.00;8.20;;;16.10;99.90;;;;;;5063397;28;21052;-90
2021/06/15 05:40:44;;;;;;;17.73;9.00;;;16.20;99.90;;;;;;5060018;28;20655;-90
2021/06/15 05:43:12;;;;;;;14.13;8.40;;;16.30;99.90;;;;;;5060849;28;21200;-89
2021/06/15 05:45:40;;;;;;;8.33;7.60;;;16.50;99.90;;;;;;5062913;28;20668;-90
2021/06/15 05:48:08;;;;;;;8.83;7.67;;;16.50;99.90;;;;;;5061019;28;21124;-91
2021/06/15 05:50:35;;;;;;;6.80;6.10;;;16.60;99.90;;;;;;5062809;28;20651;-90
2021/06/15 05:53:02;;;;;;;7.50;6.47;;;16.70;99.90;;;;;;5065456;28;20640;-90
2021/06/15 05:55:29;;;;;;;7.30;6.60;;;16.80;99.90;;;;;;5061096;28;20628;-90
2021/06/15 05:57:56;;;;;;;6.93;6.23;;;16.90;99.90;;;;;;5065398;28;20645;-90
2021/06/15 06:00:23;;;;;;;6.03;5.53;;;17.00;99.90;;;;;;5061749;28;20661;-90
2021/06/15 06:02:51;;;;;;;7.20;6.70;;;17.10;99.90;;;;;;5065361;28;20600;-91
2021/06/15 06:08:07;;;;;;;14.80;7.80;;;17.30;99.90;;;;;;5062623;28;21372;-88
2021/06/15 06:10:37;;;;;;;7.77;6.90;;;17.40;99.90;;;;;;5058506;28;20756;-87
2021/06/15 06:13:06;;;;;;;7.10;6.40;;;17.50;99.90;;;;;;5062986;28;20643;-87
2021/06/15 06:15:34;;;;;;;7.10;6.40;;;17.60;99.90;;;;;;5057301;28;20694;-88
2021/06/15 06:18:07;;;;;;;6.70;6.07;;;17.70;99.90;;;;;;5059915;28;21252;-88
2021/06/15 06:20:37;;;;;;;8.03;6.10;;;17.90;99.90;;;;;;5059535;28;20656;-88
2021/06/15 06:23:04;;;;;;;6.23;5.63;;;18.00;99.90;;;;;;5062787;28;20637;-88
2021/06/15 06:25:32;;;;;;;9.80;5.33;;;18.20;99.90;;;;;;5063923;28;20637;-88
2021/06/15 06:27:58;;;;;;;7.30;5.47;;;18.20;99.90;;;;;;5060132;28;20625;-87
2021/06/15 06:30:26;;;;;;;5.37;4.87;;;18.30;99.90;;;;;;5061716;28;21115;-89
2021/06/15 06:32:53;;;;;;;5.80;5.17;;;18.40;99.90;;;;;;5064120;28;20699;-90
2021/06/15 06:35:19;;;;;;;10.27;5.70;;;18.60;99.90;;;;;;5061495;28;21153;-89
2021/06/15 06:37:48;;;;;;;7.77;5.00;;;18.70;99.90;;;;;;5063010;28;20671;-89
2021/06/15 06:40:15;;;;;;;5.50;4.30;;;18.80;99.90;;;;;;5061944;28;21100;-89
2021/06/15 06:42:42;;;;;;;5.13;4.63;;;19.00;99.90;;;;;;5061268;28;20625;-89
2021/06/15 06:45:11;;;;;;;4.97;4.23;;;19.10;99.90;;;;;;5063366;28;21205;-89
2021/06/15 06:47:39;;;;;;;5.93;5.20;;;19.30;99.90;;;;;;5063227;28;20636;-89
2021/06/15 06:50:07;;;;;;;8.57;4.70;;;19.30;99.90;;;;;;5064517;28;20647;-89
2021/06/15 06:52:34;;;;;;;5.47;4.60;;;19.50;99.90;;;;;;5066741;28;20632;-90
2021/06/15 06:55:03;;;;;;;5.37;4.63;;;19.70;99.90;;;;;;5064192;28;20643;-91
2021/06/15 06:57:30;;;;;;;5.00;4.50;;;19.90;99.90;;;;;;5061070;28;20661;-91
2021/06/15 06:59:57;;;;;;;7.57;4.97;;;20.00;99.90;;;;;;5064335;28;20644;-90
2021/06/15 07:02:23;;;;;;;7.50;4.80;;;20.20;99.90;;;;;;5047310;28;21243;-90
2021/06/15 07:04:50;;;;;;;5.70;4.30;;;20.30;99.90;;;;;;5060832;28;20633;-90
2021/06/15 07:07:18;;;;;;;5.33;4.10;;;20.40;99.90;;;;;;5061882;28;20624;-92
2021/06/15 07:09:51;;;;;;;4.50;3.87;;;20.50;99.90;;;;;;5065737;28;20653;-89
2021/06/15 07:12:19;;;;;;;6.63;4.10;;;20.60;99.90;;;;;;5047019;28;20622;-89
2021/06/15 07:14:46;;;;;;;4.27;3.80;;;20.70;99.90;;;;;;5068240;28;20617;-89
2021/06/15 07:17:13;;;;;;;3.67;3.37;;;20.70;99.90;;;;;;5070569;28;20683;-90
2021/06/15 07:19:40;;;;;;;4.87;3.37;;;20.90;99.90;;;;;;5072253;28;20645;-89
2021/06/15 07:22:10;;;;;;;7.93;3.80;;;21.00;99.90;;;;;;5064713;28;20634;-91
2021/06/15 07:24:37;;;;;;;6.00;3.00;;;21.10;99.90;;;;;;5062979;28;20737;-90
2021/06/15 07:27:05;;;;;;;4.60;3.00;;;21.20;99.90;;;;;;5064861;28;20610;-90
2021/06/15 07:29:33;;;;;;;4.03;3.53;;;21.20;99.90;;;;;;5066090;28;20638;-90
2021/06/15 07:32:00;;;;;;;4.60;3.57;;;21.30;99.90;;;;;;5068672;28;20636;-91
2021/06/15 07:34:27;;;;;;;6.57;3.90;;;21.40;99.90;;;;;;5067894;28;20640;-90
2021/06/15 07:36:54;;;;;;;4.90;3.40;;;21.40;99.90;;;;;;5064806;28;21227;-91
2021/06/15 07:39:21;;;;;;;8.13;3.60;;;21.60;98.00;;;;;;5067788;28;20628;-89
2021/06/15 07:41:49;;;;;;;5.23;3.67;;;21.80;98.10;;;;;;5065874;28;20631;-92
2021/06/15 07:44:16;;;;;;;4.43;3.37;;;21.90;99.30;;;;;;5067468;28;20626;-90
2021/06/15 07:46:44;;;;;;;4.57;3.27;;;21.90;97.90;;;;;;5063388;28;20625;-90
2021/06/15 07:49:11;;;;;;;2.97;2.73;;;22.00;98.70;;;;;;5061127;28;20620;-89
2021/06/15 07:51:38;;;;;;;3.50;3.00;;;22.10;96.50;;;;;;5061840;28;21027;-90
2021/06/15 07:54:06;;;;;;;5.40;3.40;;;22.20;97.10;;;;;;5060897;28;20992;-91
2021/06/15 07:56:33;;;;;;;7.27;3.43;;;22.40;97.30;;;;;;5065945;28;20652;-90
2021/06/15 07:59:00;;;;;;;5.63;3.03;;;22.50;95.90;;;;;;5064014;28;20972;-91
2021/06/15 08:01:26;;;;;;;5.20;3.23;;;22.50;96.00;;;;;;5063691;28;20663;-91
2021/06/15 08:03:55;;;;;;;5.63;2.90;;;22.50;96.50;;;;;;5064686;28;20655;-90
2021/06/15 08:06:22;;;;;;;5.47;3.50;;;22.50;94.80;;;;;;5064358;28;20637;-91
2021/06/15 08:08:49;;;;;;;3.03;2.73;;;22.60;94.90;;;;;;5064749;28;20664;-91
2021/06/15 08:11:16;;;;;;;5.53;2.90;;;22.80;95.50;;;;;;5065925;28;20665;-91
2021/06/15 08:13:43;;;;;;;4.07;2.83;;;23.00;95.90;;;;;;5069275;28;20655;-91
2021/06/15 08:16:10;;;;;;;3.20;3.00;;;23.10;95.40;;;;;;5071025;28;20633;-91
2021/06/15 08:18:37;;;;;;;4.10;2.77;;;23.30;94.80;;;;;;5067098;28;20964;-91
2021/06/15 08:21:06;;;;;;;5.20;3.23;;;23.30;94.30;;;;;;5068461;28;20653;-91
2021/06/15 08:23:33;;;;;;;5.53;3.33;;;23.40;94.50;;;;;;5070463;28;20659;-90
2021/06/15 08:25:59;;;;;;;4.50;3.10;;;23.50;94.40;;;;;;5070046;28;20625;-91
2021/06/15 08:28:26;;;;;;;4.20;3.07;;;23.70;94.40;;;;;;5067528;28;20713;-90
2021/06/15 08:30:55;;;;;;;3.50;3.20;;;23.90;94.10;;;;;;5066387;28;21011;-90
2021/06/15 08:33:22;;;;;;;4.60;3.07;;;24.00;94.50;;;;;;5067685;28;20633;-91
2021/06/15 08:35:50;;;;;;;5.17;3.50;;;24.10;94.10;;;;;;5071019;28;20624;-89
2021/06/15 08:38:19;;;;;;;6.23;3.17;;;24.20;94.10;;;;;;5067596;28;20657;-93
2021/06/15 08:40:47;;;;;;;4.10;3.10;;;24.50;94.00;;;;;;5067793;28;20649;-89
2021/06/15 08:43:17;;;;;;;2.90;2.60;;;24.40;93.60;;;;;;5062270;28;20656;-92
2021/06/15 08:45:43;;;;;;;9.87;3.40;;;24.50;94.30;;;;;;5067232;28;20621;-91
2021/06/15 08:48:11;;;;;;;7.20;3.93;;;24.60;93.80;;;;;;5062847;28;20629;-91
2021/06/15 08:50:39;;;;;;;4.13;2.60;;;24.70;93.80;;;;;;5062230;28;20733;-90
2021/06/15 08:53:09;;;;;;;3.27;2.70;;;25.00;94.00;;;;;;5045894;28;20617;-91
2021/06/15 08:55:39;;;;;;;7.03;3.63;;;25.20;94.20;;;;;;5042375;28;20622;-92
2021/06/15 08:58:19;;;;;;;5.20;2.90;;;25.50;94.70;;;;;;5063065;28;20675;-92
2021/06/15 09:00:46;;;;;;;4.40;2.80;;;25.60;93.50;;;;;;5060975;28;21012;-92
2021/06/15 09:03:14;;;;;;;4.03;3.07;;;25.90;93.20;;;;;;5065794;28;20638;-91
2021/06/15 09:05:41;;;;;;;4.53;3.70;;;26.00;92.30;;;;;;5066985;28;20621;-90
2021/06/15 09:08:10;;;;;;;3.50;3.17;;;26.20;92.00;;;;;;5060785;28;20697;-91
2021/06/15 09:10:40;;;;;;;6.77;3.30;;;26.40;91.70;;;;;;5065337;28;21003;-92
2021/06/15 09:13:28;;;;;;;8.30;3.03;;;26.30;91.00;;;;;;5063595;28;20622;-90
2021/06/15 09:15:56;;;;;;;5.90;2.50;;;26.30;87.30;;;;;;5064636;28;20652;-91
2021/06/15 09:18:28;;;;;;;8.33;3.13;;;26.50;90.50;;;;;;5064953;28;20718;-91
2021/06/15 09:20:58;;;;;;;5.70;2.43;;;26.70;87.40;;;;;;5059937;28;21228;-91
2021/06/15 09:23:33;;;;;;;2.73;2.47;;;26.70;83.30;;;;;;5061502;28;21159;-90
2021/06/15 09:26:01;;;;;;;4.20;3.40;;;26.70;85.50;;;;;;5060213;28;20630;-92
2021/06/15 09:28:30;;;;;;;3.17;2.87;;;26.80;86.40;;;;;;5063420;28;20629;-90
2021/06/15 09:31:02;;;;;;;4.30;3.00;;;27.00;87.70;;;;;;5062410;28;20660;-91
2021/06/15 09:33:43;;;;;;;6.53;3.40;;;26.90;86.80;;;;;;5064886;28;20622;-92
2021/06/15 09:36:27;;;;;;;5.13;3.00;;;27.00;87.30;;;;;;5063475;28;20617;-91
2021/06/15 09:38:56;;;;;;;3.97;3.00;;;27.10;87.70;;;;;;5064775;28;21211;-91
2021/06/15 09:41:43;;;;;;;4.13;3.73;;;27.20;87.50;;;;;;5066306;28;21219;-91
2021/06/15 09:44:14;;;;;;;3.53;3.23;;;27.30;83.10;;;;;;5062783;28;20628;-91
2021/06/15 09:46:47;;;;;;;3.83;2.87;;;27.40;83.30;;;;;;5066196;28;20605;-90
2021/06/15 09:49:29;;;;;;;2.70;2.50;;;27.50;82.10;;;;;;5064937;28;20625;-91
2021/06/15 09:52:19;;;;;;;3.53;2.90;;;27.50;79.00;;;;;;5070132;28;20608;-91
2021/06/15 09:54:47;;;;;;;6.67;2.90;;;27.70;79.30;;;;;;5068369;28;20632;-92
2021/06/15 09:57:21;;;;;;;7.10;3.10;;;27.60;80.00;;;;;;5071821;28;20660;-91
2021/06/15 10:00:13;;;;;;;3.40;2.87;;;27.60;80.50;;;;;;5072771;28;20675;-91
2021/06/15 10:02:52;;;;;;;4.90;2.63;;;27.70;81.20;;;;;;5070868;28;21006;-91
2021/06/15 10:05:30;;;;;;;4.23;2.70;;;27.90;79.80;;;;;;5070791;28;20631;-91
2021/06/15 10:08:05;;;;;;;3.07;2.80;;;28.00;78.20;;;;;;5076448;28;20594;-90
2021/06/15 10:10:39;;;;;;;3.20;2.47;;;28.10;77.50;;;;;;5085659;28;20645;-91
2021/06/15 10:13:10;;;;;;;6.50;2.90;;;28.20;75.90;;;;;;5085563;28;20621;-91
2021/06/15 10:15:40;;;;;;;3.33;3.00;;;28.30;74.20;;;;;;5083175;28;20612;-92
2021/06/15 10:18:08;;;;;;;5.13;2.50;;;28.20;70.40;;;;;;5088408;28;20673;-92
2021/06/15 10:20:37;;;;;;;5.70;2.90;;;28.00;70.60;;;;;;5088662;28;20673;-93
2021/06/15 10:23:07;;;;;;;3.27;2.43;;;28.10;73.00;;;;;;5079288;28;20950;-92
2021/06/15 10:25:35;;;;;;;3.53;2.00;;;28.10;72.90;;;;;;5079590;28;20628;-90
2021/06/15 10:28:12;;;;;;;3.90;2.00;;;28.60;72.30;;;;;;5088523;28;20632;-92
2021/06/15 10:30:48;;;;;;;6.90;3.07;;;28.90;69.70;;;;;;5092863;28;20672;-92
2021/06/15 10:33:19;;;;;;;2.70;2.20;;;29.00;65.90;;;;;;5093653;28;20627;-90
2021/06/15 10:35:48;;;;;;;2.83;2.27;;;28.60;65.20;;;;;;5087882;28;20624;-91
2021/06/15 10:38:39;;;;;;;3.40;2.53;;;28.30;66.10;;;;;;5048745;28;20671;-93
2021/06/15 10:41:06;;;;;;;3.20;2.80;;;28.30;67.50;;;;;;5076601;28;20667;-92
2021/06/15 10:43:45;;;;;;;2.47;2.27;;;28.80;68.30;;;;;;5074965;28;20605;-91
2021/06/15 10:46:35;;;;;;;3.23;2.60;;;29.30;65.30;;;;;;5071322;28;21061;-91
2021/06/15 10:49:05;;;;;;;3.33;2.40;;;29.30;64.50;;;;;;5076897;28;20704;-92
2021/06/15 10:51:36;;;;;;;3.13;2.50;;;29.60;64.70;;;;;;5085784;28;20677;-93
2021/06/15 10:54:20;;;;;;;3.03;2.40;;;29.40;63.80;;;;;;5085927;28;20629;-92
2021/06/15 10:57:14;;;;;;;4.03;2.63;;;29.60;67.20;;;;;;5081889;28;20631;-91
2021/06/15 10:59:59;;;;;;;4.73;3.00;;;29.80;63.60;;;;;;5085154;28;20716;-90
2021/06/15 11:02:28;;;;;;;4.10;2.50;;;29.80;63.50;;;;;;5089089;28;20629;-91
2021/06/15 11:04:56;;;;;;;2.83;2.43;;;30.00;63.60;;;;;;5067285;28;20660;-91
2021/06/15 11:07:27;;;;;;;3.40;2.67;;;30.10;61.70;;;;;;5088702;28;20711;-92
2021/06/15 11:09:54;;;;;;;3.63;2.57;;;30.50;60.70;;;;;;5073836;28;20657;-92
2021/06/15 11:12:22;;;;;;;2.77;2.30;;;30.20;60.20;;;;;;5073267;28;20617;-93
2021/06/15 11:15:22;;;;;;;3.13;2.53;;;30.00;60.00;;;;;;5068926;28;20704;-93
2021/06/15 11:17:55;;;;;;;3.10;2.67;;;30.00;58.20;;;;;;5023572;28;21114;-90
2021/06/15 11:20:27;;;;;;;2.77;1.90;;;29.60;57.90;;;;;;5064355;28;21432;-90
2021/06/15 11:23:17;;;;;;;3.00;2.60;;;30.40;57.70;;;;;;5070623;28;20617;-94
2021/06/15 11:25:46;;;;;;;3.27;2.30;;;30.40;56.80;;;;;;5069944;28;21042;-91
2021/06/15 11:28:41;;;;;;;3.37;2.27;;;30.40;57.70;;;;;;5067174;28;20642;-90
2021/06/15 11:31:38;;;;;;;6.03;1.90;;;30.40;56.50;;;;;;5053991;28;20656;-91
2021/06/15 11:34:17;;;;;;;2.60;1.63;;;30.30;57.30;;;;;;5067734;28;20637;-92
2021/06/15 11:36:49;;;;;;;2.20;1.83;;;30.50;57.10;;;;;;5069309;28;20688;-90
2021/06/15 11:39:40;;;;;;;1.87;1.77;;;30.90;56.50;;;;;;5068392;28;20730;-91
2021/06/15 11:42:26;;;;;;;2.90;2.00;;;31.20;52.70;;;;;;5051447;28;21116;-91
2021/06/15 11:45:02;;;;;;;2.87;2.50;;;30.80;51.10;;;;;;5065790;28;20613;-91
2021/06/15 11:47:37;;;;;;;3.07;2.20;;;30.90;52.10;;;;;;5050627;28;20620;-90
2021/06/15 11:50:28;;;;;;;2.93;2.23;;;31.20;53.00;;;;;;5064616;28;20754;-92
2021/06/15 11:53:00;;;;;;;3.10;2.50;;;31.20;53.90;;;;;;5063530;28;20677;-91
2021/06/15 11:55:31;;;;;;;5.87;2.60;;;32.00;53.60;;;;;;5065241;28;20618;-90
2021/06/15 11:58:00;;;;;;;2.30;2.10;;;32.20;52.40;;;;;;5062255;28;20696;-90
2021/06/15 12:00:29;;;;;;;2.73;2.53;;;32.80;51.60;;;;;;5063673;28;20754;-91
2021/06/15 12:03:05;;;;;;;3.00;2.43;;;32.90;50.80;;;;;;5062805;28;20640;-91
2021/06/15 12:05:49;;;;;;;2.60;2.00;;;32.70;52.60;;;;;;5068192;28;20625;-89
2021/06/15 12:08:17;;;;;;;3.40;2.10;;;32.40;51.30;;;;;;5063614;28;20214;-92
2021/06/15 12:10:45;;;;;;;2.23;1.97;;;32.90;50.90;;;;;;5065744;28;20222;-92
2021/06/15 12:13:17;;;;;;;2.40;2.20;;;32.50;52.00;;;;;;5065076;28;20209;-92
2021/06/15 12:15:48;;;;;;;2.67;2.47;;;32.80;50.90;;;;;;5061342;28;20206;-92
2021/06/15 12:18:28;;;;;;;2.42;2.22;;;33.80;50.80;;;;;;5060048;28;20584;-92
2021/06/15 12:21:00;;;;;;;3.63;2.10;;;33.50;48.60;;;;;;5061149;28;20225;-91
2021/06/15 12:23:32;;;;;;;3.25;2.03;;;34.40;50.30;;;;;;5068133;28;20224;-92
2021/06/15 12:26:07;;;;;;;2.45;2.25;;;33.90;49.80;;;;;;5066292;28;20211;-92
2021/06/15 12:28:35;;;;;;;2.20;1.98;;;34.00;48.60;;;;;;5072847;28;20198;-92
2021/06/15 12:31:11;;;;;;;3.80;2.10;;;33.70;48.60;;;;;;5067226;28;20296;-93
2021/06/15 12:33:40;;;;;;;3.70;2.35;;;34.50;48.20;;;;;;5067657;28;20221;-92
2021/06/15 12:36:11;;;;;;;3.92;2.22;;;34.30;48.80;;;;;;5064478;28;20207;-91
2021/06/15 12:38:41;;;;;;;3.20;2.13;;;33.50;47.60;;;;;;5064856;28;20211;-92
2021/06/15 12:41:11;;;;;;;2.30;2.10;;;33.70;48.70;;;;;;5062218;28;20237;-91
2021/06/15 12:43:40;;;;;;;4.80;2.50;;;32.90;47.10;;;;;;5064101;28;20287;-91
2021/06/15 12:46:13;;;;;;;2.30;1.93;;;34.00;47.70;;;;;;5064185;28;20649;-92
2021/06/15 12:48:52;;;;;;;3.85;2.03;;;34.70;45.30;;;;;;5063863;28;20194;-93
2021/06/15 12:51:25;;;;;;;2.90;2.33;;;34.40;44.90;;;;;;5063695;28;20222;-92
2021/06/15 12:53:52;;;;;;;2.08;1.88;;;34.60;46.20;;;;;;5045190;28;20199;-92
2021/06/15 12:56:28;;;;;;;2.83;1.85;;;35.30;45.20;;;;;;5064492;28;20571;-92
2021/06/15 12:58:58;;;;;;;3.22;1.92;;;34.60;46.40;;;;;;5065337;28;20221;-92
2021/06/15 13:01:38;;;;;;;2.88;2.10;;;34.50;45.70;;;;;;5061429;28;20237;-92
2021/06/15 13:04:21;;;;;;;2.63;2.10;;;34.60;45.30;;;;;;5065372;28;20202;-92
2021/06/15 13:06:50;;;;;;;2.90;2.33;;;35.40;44.40;;;;;;5063953;28;20206;-92